sensor_id;sensor_type;location;lat;lon;timestamp;P1;durP1;ratioP1;P2;durP2;ratioP2
71806;SDS011;59655;42.590;23.364;2023-06-22T00:00:54;7.65;;;4.97;;
71806;SDS011;59655;42.590;23.364;2023-06-22T00:03:20;6.93;;;5.75;;
71806;SDS011;59655;42.590;23.364;2023-06-22T00:05:48;8.95;;;5.55;;
71806;SDS011;59655;42.590;23.364;2023-06-22T00:08:14;7.75;;;5.60;;
71806;SDS011;59655;42.590;23.364;2023-06-22T00:10:40;9.60;;;5.57;;
71806;SDS011;59655;42.590;23.364;2023-06-22T00:13:06;8.55;;;5.43;;
71806;SDS011;59655;42.590;23.364;2023-06-22T00:15:33;8.13;;;5.78;;
71806;SDS011;59655;42.590;23.364;2023-06-22T00:17:58;7.07;;;5.45;;
71806;SDS011;59655;42.590;23.364;2023-06-22T00:20:25;7.53;;;5.68;;
71806;SDS011;59655;42.590;23.364;2023-06-22T00:22:53;6.95;;;5.70;;
71806;SDS011;59655;42.590;23.364;2023-06-22T00:25:19;7.63;;;5.55;;
71806;SDS011;59655;42.590;23.364;2023-06-22T00:27:44;7.22;;;5.75;;
71806;SDS011;59655;42.590;23.364;2023-06-22T00:30:10;7.40;;;5.43;;
71806;SDS011;59655;42.590;23.364;2023-06-22T00:32:35;6.45;;;5.38;;
71806;SDS011;59655;42.590;23.364;2023-06-22T00:35:01;7.13;;;5.55;;
71806;SDS011;59655;42.590;23.364;2023-06-22T00:37:26;8.55;;;5.68;;
71806;SDS011;59655;42.590;23.364;2023-06-22T00:42:20;7.20;;;5.18;;
71806;SDS011;59655;42.590;23.364;2023-06-22T00:44:45;8.10;;;5.63;;
71806;SDS011;59655;42.590;23.364;2023-06-22T00:47:11;8.20;;;5.53;;
71806;SDS011;59655;42.590;23.364;2023-06-22T00:49:38;9.80;;;5.43;;
71806;SDS011;59655;42.590;23.364;2023-06-22T00:52:04;7.97;;;6.05;;
71806;SDS011;59655;42.590;23.364;2023-06-22T00:54:34;7.13;;;5.50;;
71806;SDS011;59655;42.590;23.364;2023-06-22T00:57:01;7.10;;;5.70;;
71806;SDS011;59655;42.590;23.364;2023-06-22T00:59:27;7.50;;;5.70;;
71806;SDS011;59655;42.590;23.364;2023-06-22T01:01:52;7.18;;;5.70;;
71806;SDS011;59655;42.590;23.364;2023-06-22T01:04:18;7.78;;;6.25;;
71806;SDS011;59655;42.590;23.364;2023-06-22T01:07:02;9.18;;;5.75;;
71806;SDS011;59655;42.590;23.364;2023-06-22T01:12:22;7.82;;;5.45;;
71806;SDS011;59655;42.590;23.364;2023-06-22T01:14:50;8.10;;;5.88;;
71806;SDS011;59655;42.590;23.364;2023-06-22T01:17:20;7.78;;;5.80;;
71806;SDS011;59655;42.590;23.364;2023-06-22T01:19:48;6.43;;;5.65;;
71806;SDS011;59655;42.590;23.364;2023-06-22T01:27:51;7.57;;;5.88;;
71806;SDS011;59655;42.590;23.364;2023-06-22T01:30:25;8.52;;;6.20;;
71806;SDS011;59655;42.590;23.364;2023-06-22T01:32:54;7.00;;;5.72;;
71806;SDS011;59655;42.590;23.364;2023-06-22T01:35:21;6.90;;;5.68;;
71806;SDS011;59655;42.590;23.364;2023-06-22T01:37:47;9.20;;;5.80;;
71806;SDS011;59655;42.590;23.364;2023-06-22T01:40:14;8.75;;;5.88;;
71806;SDS011;59655;42.590;23.364;2023-06-22T01:42:40;7.13;;;5.82;;
71806;SDS011;59655;42.590;23.364;2023-06-22T01:45:08;9.40;;;5.72;;
71806;SDS011;59655;42.590;23.364;2023-06-22T01:47:35;8.00;;;6.35;;
71806;SDS011;59655;42.590;23.364;2023-06-22T01:50:00;8.13;;;6.13;;
71806;SDS011;59655;42.590;23.364;2023-06-22T01:52:26;8.73;;;6.40;;
71806;SDS011;59655;42.590;23.364;2023-06-22T01:54:51;8.43;;;6.13;;
71806;SDS011;59655;42.590;23.364;2023-06-22T01:57:17;7.70;;;6.05;;
71806;SDS011;59655;42.590;23.364;2023-06-22T02:00:01;10.52;;;6.43;;
71806;SDS011;59655;42.590;23.364;2023-06-22T02:02:29;8.75;;;6.43;;
71806;SDS011;59655;42.590;23.364;2023-06-22T02:05:10;8.02;;;6.38;;
71806;SDS011;59655;42.590;23.364;2023-06-22T02:07:42;8.45;;;6.10;;
71806;SDS011;59655;42.590;23.364;2023-06-22T02:10:12;7.07;;;5.80;;
71806;SDS011;59655;42.590;23.364;2023-06-22T02:12:41;10.57;;;6.45;;
71806;SDS011;59655;42.590;23.364;2023-06-22T02:15:07;8.88;;;6.63;;
71806;SDS011;59655;42.590;23.364;2023-06-22T02:17:35;8.38;;;6.75;;
71806;SDS011;59655;42.590;23.364;2023-06-22T02:20:01;8.90;;;6.53;;
71806;SDS011;59655;42.590;23.364;2023-06-22T02:22:29;10.10;;;6.68;;
71806;SDS011;59655;42.590;23.364;2023-06-22T02:24:55;8.43;;;6.25;;
71806;SDS011;59655;42.590;23.364;2023-06-22T02:27:21;7.65;;;6.22;;
71806;SDS011;59655;42.590;23.364;2023-06-22T02:29:46;8.43;;;7.00;;
71806;SDS011;59655;42.590;23.364;2023-06-22T02:32:12;9.50;;;7.07;;
71806;SDS011;59655;42.590;23.364;2023-06-22T02:34:37;8.88;;;6.82;;
71806;SDS011;59655;42.590;23.364;2023-06-22T02:37:02;8.40;;;7.00;;
71806;SDS011;59655;42.590;23.364;2023-06-22T02:39:28;8.68;;;6.65;;
71806;SDS011;59655;42.590;23.364;2023-06-22T02:41:54;8.65;;;6.82;;
71806;SDS011;59655;42.590;23.364;2023-06-22T02:44:19;9.18;;;6.80;;
71806;SDS011;59655;42.590;23.364;2023-06-22T02:46:46;10.07;;;7.20;;
71806;SDS011;59655;42.590;23.364;2023-06-22T02:49:12;9.77;;;7.00;;
71806;SDS011;59655;42.590;23.364;2023-06-22T02:51:38;9.98;;;7.45;;
71806;SDS011;59655;42.590;23.364;2023-06-22T02:54:07;8.93;;;7.22;;
71806;SDS011;59655;42.590;23.364;2023-06-22T02:56:33;9.15;;;7.00;;
71806;SDS011;59655;42.590;23.364;2023-06-22T02:58:58;10.25;;;6.85;;
71806;SDS011;59655;42.590;23.364;2023-06-22T03:01:27;9.98;;;7.38;;
71806;SDS011;59655;42.590;23.364;2023-06-22T03:03:53;8.32;;;6.95;;
71806;SDS011;59655;42.590;23.364;2023-06-22T03:06:20;12.05;;;7.07;;
71806;SDS011;59655;42.590;23.364;2023-06-22T03:08:48;10.18;;;7.18;;
71806;SDS011;59655;42.590;23.364;2023-06-22T03:11:15;9.40;;;7.65;;
71806;SDS011;59655;42.590;23.364;2023-06-22T03:13:40;8.82;;;7.40;;
71806;SDS011;59655;42.590;23.364;2023-06-22T03:16:06;9.73;;;7.90;;
71806;SDS011;59655;42.590;23.364;2023-06-22T03:18:31;10.85;;;7.82;;
71806;SDS011;59655;42.590;23.364;2023-06-22T03:20:57;11.55;;;8.35;;
71806;SDS011;59655;42.590;23.364;2023-06-22T03:23:22;10.32;;;7.40;;
71806;SDS011;59655;42.590;23.364;2023-06-22T03:25:47;10.35;;;7.43;;
71806;SDS011;59655;42.590;23.364;2023-06-22T03:28:13;11.23;;;7.90;;
71806;SDS011;59655;42.590;23.364;2023-06-22T03:30:38;10.30;;;7.47;;
71806;SDS011;59655;42.590;23.364;2023-06-22T03:33:03;10.40;;;8.00;;
71806;SDS011;59655;42.590;23.364;2023-06-22T03:35:29;11.23;;;7.57;;
71806;SDS011;59655;42.590;23.364;2023-06-22T03:37:54;9.10;;;7.55;;
71806;SDS011;59655;42.590;23.364;2023-06-22T03:40:20;9.95;;;7.80;;
71806;SDS011;59655;42.590;23.364;2023-06-22T03:42:45;12.85;;;8.02;;
71806;SDS011;59655;42.590;23.364;2023-06-22T03:45:11;19.35;;;11.50;;
71806;SDS011;59655;42.590;23.364;2023-06-22T03:47:37;21.80;;;11.52;;
71806;SDS011;59655;42.590;23.364;2023-06-22T03:50:02;17.33;;;10.95;;
71806;SDS011;59655;42.590;23.364;2023-06-22T03:52:31;13.05;;;7.63;;
71806;SDS011;59655;42.590;23.364;2023-06-22T03:54:57;11.60;;;8.43;;
71806;SDS011;59655;42.590;23.364;2023-06-22T03:57:23;10.68;;;8.68;;
71806;SDS011;59655;42.590;23.364;2023-06-22T03:59:48;14.40;;;9.07;;
71806;SDS011;59655;42.590;23.364;2023-06-22T04:02:13;13.88;;;9.07;;
71806;SDS011;59655;42.590;23.364;2023-06-22T04:04:39;21.65;;;11.32;;
71806;SDS011;59655;42.590;23.364;2023-06-22T04:07:05;21.55;;;10.90;;
71806;SDS011;59655;42.590;23.364;2023-06-22T04:09:30;16.58;;;9.88;;
71806;SDS011;59655;42.590;23.364;2023-06-22T04:11:56;13.63;;;8.07;;
71806;SDS011;59655;42.590;23.364;2023-06-22T04:14:21;9.40;;;7.93;;
71806;SDS011;59655;42.590;23.364;2023-06-22T04:16:46;12.18;;;7.90;;
71806;SDS011;59655;42.590;23.364;2023-06-22T04:19:12;10.45;;;8.38;;
71806;SDS011;59655;42.590;23.364;2023-06-22T04:21:42;10.20;;;7.93;;
71806;SDS011;59655;42.590;23.364;2023-06-22T04:24:09;9.43;;;7.65;;
71806;SDS011;59655;42.590;23.364;2023-06-22T04:26:35;10.52;;;7.95;;
71806;SDS011;59655;42.590;23.364;2023-06-22T04:29:02;9.43;;;7.97;;
71806;SDS011;59655;42.590;23.364;2023-06-22T04:31:36;13.35;;;9.43;;
71806;SDS011;59655;42.590;23.364;2023-06-22T04:34:03;14.38;;;9.95;;
71806;SDS011;59655;42.590;23.364;2023-06-22T04:36:39;18.90;;;13.27;;
71806;SDS011;59655;42.590;23.364;2023-06-22T04:39:09;19.42;;;10.77;;
71806;SDS011;59655;42.590;23.364;2023-06-22T04:41:36;18.52;;;10.52;;
71806;SDS011;59655;42.590;23.364;2023-06-22T04:44:18;17.85;;;10.40;;
71806;SDS011;59655;42.590;23.364;2023-06-22T04:46:49;20.13;;;10.48;;
71806;SDS011;59655;42.590;23.364;2023-06-22T04:49:18;14.73;;;9.40;;
71806;SDS011;59655;42.590;23.364;2023-06-22T04:51:45;13.40;;;8.90;;
71806;SDS011;59655;42.590;23.364;2023-06-22T04:54:10;11.63;;;8.75;;
71806;SDS011;59655;42.590;23.364;2023-06-22T04:56:35;13.35;;;8.98;;
71806;SDS011;59655;42.590;23.364;2023-06-22T04:59:01;12.95;;;8.88;;
71806;SDS011;59655;42.590;23.364;2023-06-22T05:01:28;13.93;;;9.02;;
71806;SDS011;59655;42.590;23.364;2023-06-22T05:03:53;15.50;;;9.73;;
71806;SDS011;59655;42.590;23.364;2023-06-22T05:06:23;17.45;;;10.77;;
71806;SDS011;59655;42.590;23.364;2023-06-22T05:08:58;15.25;;;10.43;;
71806;SDS011;59655;42.590;23.364;2023-06-22T05:11:25;17.40;;;10.07;;
71806;SDS011;59655;42.590;23.364;2023-06-22T05:13:53;11.55;;;9.15;;
71806;SDS011;59655;42.590;23.364;2023-06-22T05:16:19;11.55;;;8.63;;
71806;SDS011;59655;42.590;23.364;2023-06-22T05:18:52;14.27;;;9.55;;
71806;SDS011;59655;42.590;23.364;2023-06-22T05:21:24;11.90;;;9.45;;
71806;SDS011;59655;42.590;23.364;2023-06-22T05:23:52;12.15;;;8.70;;
71806;SDS011;59655;42.590;23.364;2023-06-22T05:26:18;11.10;;;8.98;;
71806;SDS011;59655;42.590;23.364;2023-06-22T05:28:45;9.95;;;8.38;;
71806;SDS011;59655;42.590;23.364;2023-06-22T05:31:14;10.90;;;8.15;;
71806;SDS011;59655;42.590;23.364;2023-06-22T05:33:43;12.55;;;8.68;;
71806;SDS011;59655;42.590;23.364;2023-06-22T05:36:09;14.15;;;8.70;;
71806;SDS011;59655;42.590;23.364;2023-06-22T05:38:35;15.65;;;9.95;;
71806;SDS011;59655;42.590;23.364;2023-06-22T05:41:01;15.60;;;10.70;;
71806;SDS011;59655;42.590;23.364;2023-06-22T05:43:26;15.88;;;10.80;;
71806;SDS011;59655;42.590;23.364;2023-06-22T05:45:52;13.73;;;10.75;;
71806;SDS011;59655;42.590;23.364;2023-06-22T05:48:17;17.27;;;11.32;;
71806;SDS011;59655;42.590;23.364;2023-06-22T05:50:43;16.45;;;11.63;;
71806;SDS011;59655;42.590;23.364;2023-06-22T05:53:08;16.15;;;12.15;;
71806;SDS011;59655;42.590;23.364;2023-06-22T05:55:34;15.45;;;10.93;;
71806;SDS011;59655;42.590;23.364;2023-06-22T05:57:59;16.42;;;11.05;;
71806;SDS011;59655;42.590;23.364;2023-06-22T06:00:25;15.95;;;11.32;;
71806;SDS011;59655;42.590;23.364;2023-06-22T06:02:50;15.18;;;12.45;;
71806;SDS011;59655;42.590;23.364;2023-06-22T06:05:16;14.00;;;11.38;;
71806;SDS011;59655;42.590;23.364;2023-06-22T06:07:42;15.68;;;11.93;;
71806;SDS011;59655;42.590;23.364;2023-06-22T06:10:08;14.27;;;11.80;;
71806;SDS011;59655;42.590;23.364;2023-06-22T06:12:33;16.77;;;11.68;;
71806;SDS011;59655;42.590;23.364;2023-06-22T06:14:59;15.93;;;12.23;;
71806;SDS011;59655;42.590;23.364;2023-06-22T06:17:24;14.82;;;11.60;;
71806;SDS011;59655;42.590;23.364;2023-06-22T06:19:49;17.58;;;12.07;;
71806;SDS011;59655;42.590;23.364;2023-06-22T06:22:15;18.50;;;11.77;;
71806;SDS011;59655;42.590;23.364;2023-06-22T06:24:40;16.65;;;12.45;;
71806;SDS011;59655;42.590;23.364;2023-06-22T06:27:06;17.17;;;11.68;;
71806;SDS011;59655;42.590;23.364;2023-06-22T06:29:31;17.40;;;12.70;;
71806;SDS011;59655;42.590;23.364;2023-06-22T06:31:57;14.50;;;11.23;;
71806;SDS011;59655;42.590;23.364;2023-06-22T06:34:22;17.08;;;11.27;;
71806;SDS011;59655;42.590;23.364;2023-06-22T06:36:48;18.92;;;12.43;;
71806;SDS011;59655;42.590;23.364;2023-06-22T06:39:13;16.60;;;11.55;;
71806;SDS011;59655;42.590;23.364;2023-06-22T06:41:39;21.75;;;12.80;;
71806;SDS011;59655;42.590;23.364;2023-06-22T06:44:04;21.33;;;12.45;;
71806;SDS011;59655;42.590;23.364;2023-06-22T06:46:29;22.10;;;12.18;;
71806;SDS011;59655;42.590;23.364;2023-06-22T06:48:55;22.77;;;12.68;;
71806;SDS011;59655;42.590;23.364;2023-06-22T06:51:20;16.90;;;12.70;;
71806;SDS011;59655;42.590;23.364;2023-06-22T06:53:46;20.23;;;12.73;;
71806;SDS011;59655;42.590;23.364;2023-06-22T06:56:11;27.40;;;11.65;;
71806;SDS011;59655;42.590;23.364;2023-06-22T06:58:37;16.65;;;12.77;;
71806;SDS011;59655;42.590;23.364;2023-06-22T07:01:04;17.20;;;12.18;;
71806;SDS011;59655;42.590;23.364;2023-06-22T07:03:29;15.75;;;11.70;;
71806;SDS011;59655;42.590;23.364;2023-06-22T07:05:55;22.63;;;12.40;;
71806;SDS011;59655;42.590;23.364;2023-06-22T07:08:20;18.27;;;11.93;;
71806;SDS011;59655;42.590;23.364;2023-06-22T07:10:45;18.63;;;12.88;;
71806;SDS011;59655;42.590;23.364;2023-06-22T07:13:11;22.10;;;12.77;;
71806;SDS011;59655;42.590;23.364;2023-06-22T07:15:37;20.40;;;12.88;;
71806;SDS011;59655;42.590;23.364;2023-06-22T07:18:02;22.73;;;13.23;;
71806;SDS011;59655;42.590;23.364;2023-06-22T07:20:28;20.75;;;12.63;;
71806;SDS011;59655;42.590;23.364;2023-06-22T07:22:53;19.58;;;12.77;;
71806;SDS011;59655;42.590;23.364;2023-06-22T07:25:19;21.13;;;13.80;;
71806;SDS011;59655;42.590;23.364;2023-06-22T07:27:45;17.50;;;12.70;;
71806;SDS011;59655;42.590;23.364;2023-06-22T07:30:21;20.65;;;13.48;;
71806;SDS011;59655;42.590;23.364;2023-06-22T07:32:46;21.20;;;14.43;;
71806;SDS011;59655;42.590;23.364;2023-06-22T07:35:11;19.77;;;14.00;;
71806;SDS011;59655;42.590;23.364;2023-06-22T07:37:37;21.60;;;13.75;;
71806;SDS011;59655;42.590;23.364;2023-06-22T07:40:02;20.35;;;14.07;;
71806;SDS011;59655;42.590;23.364;2023-06-22T07:42:31;17.35;;;13.50;;
71806;SDS011;59655;42.590;23.364;2023-06-22T07:44:58;16.80;;;12.75;;
71806;SDS011;59655;42.590;23.364;2023-06-22T07:47:23;19.30;;;13.73;;
71806;SDS011;59655;42.590;23.364;2023-06-22T07:49:53;20.40;;;13.23;;
71806;SDS011;59655;42.590;23.364;2023-06-22T07:54:46;20.65;;;13.68;;
71806;SDS011;59655;42.590;23.364;2023-06-22T07:57:11;18.45;;;13.35;;
71806;SDS011;59655;42.590;23.364;2023-06-22T07:59:37;17.15;;;14.30;;
71806;SDS011;59655;42.590;23.364;2023-06-22T08:02:03;20.92;;;13.50;;
71806;SDS011;59655;42.590;23.364;2023-06-22T08:04:29;20.02;;;14.70;;
71806;SDS011;59655;42.590;23.364;2023-06-22T08:06:56;21.63;;;14.18;;
71806;SDS011;59655;42.590;23.364;2023-06-22T08:09:22;23.33;;;14.43;;
71806;SDS011;59655;42.590;23.364;2023-06-22T08:11:47;21.13;;;14.50;;
71806;SDS011;59655;42.590;23.364;2023-06-22T08:14:14;24.13;;;15.70;;
71806;SDS011;59655;42.590;23.364;2023-06-22T08:16:40;25.73;;;15.27;;
71806;SDS011;59655;42.590;23.364;2023-06-22T08:19:06;22.23;;;15.73;;
71806;SDS011;59655;42.590;23.364;2023-06-22T08:21:32;28.58;;;16.58;;
71806;SDS011;59655;42.590;23.364;2023-06-22T08:23:57;23.38;;;15.73;;
71806;SDS011;59655;42.590;23.364;2023-06-22T08:26:22;29.42;;;16.13;;
71806;SDS011;59655;42.590;23.364;2023-06-22T08:28:48;22.40;;;16.45;;
71806;SDS011;59655;42.590;23.364;2023-06-22T08:31:13;23.80;;;14.25;;
71806;SDS011;59655;42.590;23.364;2023-06-22T08:33:39;20.75;;;14.73;;
71806;SDS011;59655;42.590;23.364;2023-06-22T08:36:05;25.35;;;16.25;;
71806;SDS011;59655;42.590;23.364;2023-06-22T08:38:31;24.17;;;16.80;;
71806;SDS011;59655;42.590;23.364;2023-06-22T08:40:57;26.88;;;18.13;;
71806;SDS011;59655;42.590;23.364;2023-06-22T08:43:22;23.98;;;16.95;;
71806;SDS011;59655;42.590;23.364;2023-06-22T08:45:48;25.13;;;15.05;;
71806;SDS011;59655;42.590;23.364;2023-06-22T08:48:13;27.05;;;16.83;;
71806;SDS011;59655;42.590;23.364;2023-06-22T08:50:39;23.42;;;16.02;;
71806;SDS011;59655;42.590;23.364;2023-06-22T08:53:05;26.42;;;15.05;;
71806;SDS011;59655;42.590;23.364;2023-06-22T08:55:31;25.20;;;15.07;;
71806;SDS011;59655;42.590;23.364;2023-06-22T08:57:56;22.63;;;14.93;;
71806;SDS011;59655;42.590;23.364;2023-06-22T09:00:22;23.85;;;15.20;;
71806;SDS011;59655;42.590;23.364;2023-06-22T09:02:47;28.48;;;16.70;;
71806;SDS011;59655;42.590;23.364;2023-06-22T09:05:13;22.25;;;16.67;;
71806;SDS011;59655;42.590;23.364;2023-06-22T09:07:38;25.30;;;16.13;;
71806;SDS011;59655;42.590;23.364;2023-06-22T09:10:04;24.58;;;17.13;;
71806;SDS011;59655;42.590;23.364;2023-06-22T09:12:30;25.63;;;16.48;;
71806;SDS011;59655;42.590;23.364;2023-06-22T09:14:57;29.98;;;18.27;;
71806;SDS011;59655;42.590;23.364;2023-06-22T09:17:26;22.77;;;17.55;;
71806;SDS011;59655;42.590;23.364;2023-06-22T09:19:51;27.73;;;18.13;;
71806;SDS011;59655;42.590;23.364;2023-06-22T09:22:17;28.67;;;17.08;;
71806;SDS011;59655;42.590;23.364;2023-06-22T09:24:43;27.50;;;17.15;;
71806;SDS011;59655;42.590;23.364;2023-06-22T09:27:08;20.92;;;15.82;;
71806;SDS011;59655;42.590;23.364;2023-06-22T09:29:33;25.30;;;17.77;;
71806;SDS011;59655;42.590;23.364;2023-06-22T09:31:59;25.38;;;17.15;;
71806;SDS011;59655;42.590;23.364;2023-06-22T09:34:25;25.42;;;17.67;;
71806;SDS011;59655;42.590;23.364;2023-06-22T09:36:51;25.48;;;16.23;;
71806;SDS011;59655;42.590;23.364;2023-06-22T09:39:17;24.98;;;18.00;;
71806;SDS011;59655;42.590;23.364;2023-06-22T09:41:43;23.38;;;16.63;;
71806;SDS011;59655;42.590;23.364;2023-06-22T09:44:08;25.13;;;16.55;;
71806;SDS011;59655;42.590;23.364;2023-06-22T09:46:34;23.13;;;16.13;;
71806;SDS011;59655;42.590;23.364;2023-06-22T09:48:59;22.17;;;15.23;;
71806;SDS011;59655;42.590;23.364;2023-06-22T09:51:24;18.52;;;14.10;;
71806;SDS011;59655;42.590;23.364;2023-06-22T09:53:50;27.25;;;15.07;;
71806;SDS011;59655;42.590;23.364;2023-06-22T09:56:16;22.90;;;14.40;;
71806;SDS011;59655;42.590;23.364;2023-06-22T09:58:42;20.52;;;13.45;;
71806;SDS011;59655;42.590;23.364;2023-06-22T10:01:08;16.42;;;12.98;;
71806;SDS011;59655;42.590;23.364;2023-06-22T10:03:35;14.65;;;11.13;;
71806;SDS011;59655;42.590;23.364;2023-06-22T10:06:00;16.08;;;11.13;;
71806;SDS011;59655;42.590;23.364;2023-06-22T10:08:26;17.45;;;12.48;;
71806;SDS011;59655;42.590;23.364;2023-06-22T10:10:51;13.95;;;11.30;;
71806;SDS011;59655;42.590;23.364;2023-06-22T10:13:17;16.02;;;12.60;;
71806;SDS011;59655;42.590;23.364;2023-06-22T10:15:43;17.17;;;11.98;;
71806;SDS011;59655;42.590;23.364;2023-06-22T10:18:14;17.23;;;12.32;;
71806;SDS011;59655;42.590;23.364;2023-06-22T10:20:40;15.18;;;11.75;;
71806;SDS011;59655;42.590;23.364;2023-06-22T10:23:05;13.68;;;11.30;;
71806;SDS011;59655;42.590;23.364;2023-06-22T10:25:31;16.38;;;11.50;;
71806;SDS011;59655;42.590;23.364;2023-06-22T10:27:56;15.60;;;11.35;;
71806;SDS011;59655;42.590;23.364;2023-06-22T10:30:22;17.02;;;11.43;;
71806;SDS011;59655;42.590;23.364;2023-06-22T10:32:48;16.13;;;11.55;;
71806;SDS011;59655;42.590;23.364;2023-06-22T10:35:14;16.90;;;11.30;;
71806;SDS011;59655;42.590;23.364;2023-06-22T10:37:41;14.30;;;10.93;;
71806;SDS011;59655;42.590;23.364;2023-06-22T10:40:11;14.68;;;11.70;;
71806;SDS011;59655;42.590;23.364;2023-06-22T10:42:40;15.15;;;11.07;;
71806;SDS011;59655;42.590;23.364;2023-06-22T10:45:06;14.13;;;10.65;;
71806;SDS011;59655;42.590;23.364;2023-06-22T10:47:33;15.25;;;11.82;;
71806;SDS011;59655;42.590;23.364;2023-06-22T10:49:58;13.75;;;10.80;;
71806;SDS011;59655;42.590;23.364;2023-06-22T10:52:24;14.70;;;11.02;;
71806;SDS011;59655;42.590;23.364;2023-06-22T10:54:49;14.32;;;10.43;;
71806;SDS011;59655;42.590;23.364;2023-06-22T10:57:14;15.52;;;11.40;;
71806;SDS011;59655;42.590;23.364;2023-06-22T10:59:40;15.20;;;11.77;;
71806;SDS011;59655;42.590;23.364;2023-06-22T11:02:05;14.00;;;11.20;;
71806;SDS011;59655;42.590;23.364;2023-06-22T11:04:31;13.90;;;10.75;;
71806;SDS011;59655;42.590;23.364;2023-06-22T11:06:56;14.85;;;10.85;;
71806;SDS011;59655;42.590;23.364;2023-06-22T11:09:22;15.35;;;11.50;;
71806;SDS011;59655;42.590;23.364;2023-06-22T11:11:47;15.35;;;11.60;;
71806;SDS011;59655;42.590;23.364;2023-06-22T11:14:14;14.63;;;11.65;;
71806;SDS011;59655;42.590;23.364;2023-06-22T11:16:39;15.60;;;11.20;;
71806;SDS011;59655;42.590;23.364;2023-06-22T11:19:05;16.00;;;12.50;;
71806;SDS011;59655;42.590;23.364;2023-06-22T11:21:31;15.93;;;12.38;;
71806;SDS011;59655;42.590;23.364;2023-06-22T11:23:57;16.42;;;12.00;;
71806;SDS011;59655;42.590;23.364;2023-06-22T11:26:23;14.40;;;11.75;;
71806;SDS011;59655;42.590;23.364;2023-06-22T11:28:49;16.40;;;11.82;;
71806;SDS011;59655;42.590;23.364;2023-06-22T11:31:14;16.30;;;12.27;;
71806;SDS011;59655;42.590;23.364;2023-06-22T11:33:40;16.45;;;12.18;;
71806;SDS011;59655;42.590;23.364;2023-06-22T11:36:05;16.65;;;12.45;;
71806;SDS011;59655;42.590;23.364;2023-06-22T11:38:31;19.30;;;12.38;;
71806;SDS011;59655;42.590;23.364;2023-06-22T11:40:57;14.85;;;11.32;;
71806;SDS011;59655;42.590;23.364;2023-06-22T11:43:23;14.82;;;11.18;;
71806;SDS011;59655;42.590;23.364;2023-06-22T11:45:49;14.43;;;11.20;;
71806;SDS011;59655;42.590;23.364;2023-06-22T11:48:15;14.90;;;10.20;;
71806;SDS011;59655;42.590;23.364;2023-06-22T11:50:40;13.73;;;10.57;;
71806;SDS011;59655;42.590;23.364;2023-06-22T11:53:06;15.75;;;10.30;;
71806;SDS011;59655;42.590;23.364;2023-06-22T11:55:31;15.02;;;11.38;;
71806;SDS011;59655;42.590;23.364;2023-06-22T11:57:57;18.33;;;12.50;;
71806;SDS011;59655;42.590;23.364;2023-06-22T12:00:29;14.77;;;11.13;;
71806;SDS011;59655;42.590;23.364;2023-06-22T12:02:54;12.98;;;10.75;;
71806;SDS011;59655;42.590;23.364;2023-06-22T12:05:21;14.30;;;10.18;;
71806;SDS011;59655;42.590;23.364;2023-06-22T12:07:47;12.85;;;10.40;;
71806;SDS011;59655;42.590;23.364;2023-06-22T12:10:13;14.20;;;11.02;;
71806;SDS011;59655;42.590;23.364;2023-06-22T12:12:39;15.07;;;10.98;;
71806;SDS011;59655;42.590;23.364;2023-06-22T12:15:04;13.18;;;10.23;;
71806;SDS011;59655;42.590;23.364;2023-06-22T12:17:30;14.32;;;10.85;;
71806;SDS011;59655;42.590;23.364;2023-06-22T12:19:56;14.40;;;10.32;;
71806;SDS011;59655;42.590;23.364;2023-06-22T12:22:21;14.02;;;10.68;;
71806;SDS011;59655;42.590;23.364;2023-06-22T12:24:47;15.40;;;10.70;;
71806;SDS011;59655;42.590;23.364;2023-06-22T12:27:12;13.98;;;10.52;;
71806;SDS011;59655;42.590;23.364;2023-06-22T12:29:38;12.38;;;10.27;;
71806;SDS011;59655;42.590;23.364;2023-06-22T12:32:03;14.23;;;10.25;;
71806;SDS011;59655;42.590;23.364;2023-06-22T12:34:29;13.95;;;10.70;;
71806;SDS011;59655;42.590;23.364;2023-06-22T12:36:54;16.75;;;10.88;;
71806;SDS011;59655;42.590;23.364;2023-06-22T12:39:20;20.05;;;11.18;;
71806;SDS011;59655;42.590;23.364;2023-06-22T12:41:45;14.20;;;11.40;;
71806;SDS011;59655;42.590;23.364;2023-06-22T12:44:11;16.00;;;11.27;;
71806;SDS011;59655;42.590;23.364;2023-06-22T12:46:36;19.75;;;12.60;;
71806;SDS011;59655;42.590;23.364;2023-06-22T12:49:03;24.48;;;13.35;;
71806;SDS011;59655;42.590;23.364;2023-06-22T12:51:30;21.27;;;13.05;;
71806;SDS011;59655;42.590;23.364;2023-06-22T12:53:55;22.58;;;14.05;;
71806;SDS011;59655;42.590;23.364;2023-06-22T12:56:21;26.38;;;13.88;;
71806;SDS011;59655;42.590;23.364;2023-06-22T12:58:47;21.98;;;12.10;;
71806;SDS011;59655;42.590;23.364;2023-06-22T13:01:12;20.20;;;11.65;;
71806;SDS011;59655;42.590;23.364;2023-06-22T13:03:37;24.75;;;14.35;;
71806;SDS011;59655;42.590;23.364;2023-06-22T13:06:03;20.95;;;12.50;;
71806;SDS011;59655;42.590;23.364;2023-06-22T13:08:28;19.58;;;12.73;;
71806;SDS011;59655;42.590;23.364;2023-06-22T13:10:54;18.40;;;12.30;;
71806;SDS011;59655;42.590;23.364;2023-06-22T13:13:23;20.58;;;13.30;;
71806;SDS011;59655;42.590;23.364;2023-06-22T13:15:49;24.42;;;13.32;;
71806;SDS011;59655;42.590;23.364;2023-06-22T13:18:15;18.90;;;12.77;;
71806;SDS011;59655;42.590;23.364;2023-06-22T13:20:41;41.70;;;23.58;;
71806;SDS011;59655;42.590;23.364;2023-06-22T13:23:06;32.80;;;20.92;;
71806;SDS011;59655;42.590;23.364;2023-06-22T13:25:31;23.67;;;14.77;;
71806;SDS011;59655;42.590;23.364;2023-06-22T13:27:57;24.23;;;15.98;;
71806;SDS011;59655;42.590;23.364;2023-06-22T13:30:22;23.33;;;17.83;;
71806;SDS011;59655;42.590;23.364;2023-06-22T13:32:48;21.33;;;15.30;;
71806;SDS011;59655;42.590;23.364;2023-06-22T13:35:13;21.25;;;14.70;;
71806;SDS011;59655;42.590;23.364;2023-06-22T13:37:39;24.20;;;15.38;;
71806;SDS011;59655;42.590;23.364;2023-06-22T13:40:07;24.17;;;17.02;;
71806;SDS011;59655;42.590;23.364;2023-06-22T13:42:33;23.48;;;15.52;;
71806;SDS011;59655;42.590;23.364;2023-06-22T13:44:58;24.65;;;17.48;;
71806;SDS011;59655;42.590;23.364;2023-06-22T13:47:24;27.13;;;18.52;;
71806;SDS011;59655;42.590;23.364;2023-06-22T13:49:49;24.10;;;15.75;;
71806;SDS011;59655;42.590;23.364;2023-06-22T13:52:15;26.35;;;16.98;;
71806;SDS011;59655;42.590;23.364;2023-06-22T13:54:40;22.70;;;15.57;;
71806;SDS011;59655;42.590;23.364;2023-06-22T13:57:06;20.80;;;15.65;;
71806;SDS011;59655;42.590;23.364;2023-06-22T13:59:31;18.40;;;14.82;;
71806;SDS011;59655;42.590;23.364;2023-06-22T14:01:57;19.83;;;14.43;;
71806;SDS011;59655;42.590;23.364;2023-06-22T14:04:22;17.98;;;14.45;;
71806;SDS011;59655;42.590;23.364;2023-06-22T14:06:48;25.77;;;15.38;;
71806;SDS011;59655;42.590;23.364;2023-06-22T14:09:14;22.17;;;15.98;;
71806;SDS011;59655;42.590;23.364;2023-06-22T14:11:39;22.13;;;14.98;;
71806;SDS011;59655;42.590;23.364;2023-06-22T14:14:05;18.67;;;13.43;;
71806;SDS011;59655;42.590;23.364;2023-06-22T14:16:30;18.75;;;14.30;;
71806;SDS011;59655;42.590;23.364;2023-06-22T14:18:55;23.42;;;14.88;;
71806;SDS011;59655;42.590;23.364;2023-06-22T14:21:21;23.48;;;14.15;;
71806;SDS011;59655;42.590;23.364;2023-06-22T14:23:46;20.63;;;13.57;;